Time;durP1;ratioP1;P1;durP2;ratioP2;P2;SDS_P1;SDS_P2;PMS_P1;PMS_P2;Temp;Humidity;BMP_temperature;BMP_pressure;BME280_temperature;BME280_humidity;BME280_pressure;Samples;Min_cycle;Max_cycle;Signal;HPM_P1;HPM_P2
2023/07/31 00:04:21;;;;;;;3.03;2.70;;;18.80;98.00;;;;;;10563116;28;20559;-89
2023/07/31 00:09:24;;;;;;;3.75;2.22;;;18.70;97.70;;;;;;10581847;28;20228;-89
2023/07/31 00:14:26;;;;;;;3.72;2.47;;;18.60;97.80;;;;;;10546143;28;20231;-89
2023/07/31 00:19:29;;;;;;;2.88;2.17;;;18.50;99.90;;;;;;10562732;28;20261;-88
2023/07/31 00:24:31;;;;;;;3.30;2.30;;;18.40;99.90;;;;;;10563242;28;20218;-89
2023/07/31 00:29:34;;;;;;;3.05;2.17;;;18.20;99.90;;;;;;10562145;28;20209;-89
2023/07/31 00:34:37;;;;;;;3.00;2.70;;;17.90;99.90;;;;;;10580377;28;20578;-88
2023/07/31 00:39:39;;;;;;;2.78;2.45;;;17.80;99.90;;;;;;10562577;28;20189;-89
2023/07/31 00:44:42;;;;;;;3.08;2.70;;;17.80;99.90;;;;;;10580287;28;20207;-89
2023/07/31 00:49:45;;;;;;;2.50;2.30;;;17.70;99.90;;;;;;10561589;28;20205;-89
2023/07/31 00:54:49;;;;;;;3.70;2.47;;;17.60;99.90;;;;;;10580588;28;20189;-89
2023/07/31 00:59:51;;;;;;;2.80;2.22;;;17.60;99.90;;;;;;10580112;28;20611;-89
2023/07/31 01:04:55;;;;;;;4.95;2.53;;;17.30;99.90;;;;;;10579942;28;20619;-88
2023/07/31 01:10:10;;;;;;;3.38;2.97;;;17.10;99.90;;;;;;10579957;28;20221;-88
2023/07/31 01:15:14;;;;;;;2.90;2.05;;;17.10;99.90;;;;;;10560891;28;20262;-88
2023/07/31 01:20:26;;;;;;;2.53;1.88;;;16.90;99.90;;;;;;10580749;28;20188;-89
2023/07/31 01:25:59;;;;;;;4.78;2.35;;;16.80;99.90;;;;;;10579718;28;20586;-89
2023/07/31 01:31:06;;;;;;;4.18;3.08;;;16.80;99.90;;;;;;10560414;28;20205;-88
2023/07/31 01:36:10;;;;;;;3.13;2.60;;;16.80;99.90;;;;;;10560951;28;20204;-89
2023/07/31 01:41:13;;;;;;;4.55;3.10;;;17.00;99.90;;;;;;10560672;28;20277;-89
2023/07/31 01:46:16;;;;;;;2.83;2.55;;;17.10;99.90;;;;;;10582999;28;20209;-88
2023/07/31 01:51:18;;;;;;;3.97;2.90;;;17.10;99.90;;;;;;10569169;28;20208;-88
2023/07/31 01:56:21;;;;;;;5.43;2.08;;;17.00;99.90;;;;;;10568727;28;20209;-89
2023/07/31 02:01:23;;;;;;;4.35;3.13;;;16.90;99.90;;;;;;10587453;28;20231;-89
2023/07/31 02:06:27;;;;;;;2.90;2.60;;;16.80;99.90;;;;;;10568549;28;20236;-89
2023/07/31 02:11:29;;;;;;;5.72;2.90;;;16.70;99.90;;;;;;10568464;28;20258;-88
2023/07/31 02:16:32;;;;;;;3.00;2.38;;;16.80;99.90;;;;;;10586509;28;20208;-88
2023/07/31 02:21:35;;;;;;;5.53;3.03;;;16.80;99.90;;;;;;10585156;28;20268;-88
2023/07/31 02:26:38;;;;;;;5.28;3.08;;;16.70;99.90;;;;;;10567801;28;20278;-88
2023/07/31 02:31:41;;;;;;;4.80;3.25;;;16.50;99.90;;;;;;10585601;28;20266;-88
2023/07/31 02:36:43;;;;;;;5.18;3.47;;;16.40;99.90;;;;;;10586076;28;20246;-88
2023/07/31 02:41:47;;;;;;;14.80;4.85;;;16.40;99.90;;;;;;10585525;28;20197;-88
2023/07/31 02:46:49;;;;;;;8.27;5.38;;;16.30;99.90;;;;;;10567394;28;20212;-88
2023/07/31 02:51:52;;;;;;;8.32;4.75;;;16.30;99.90;;;;;;10584922;28;20605;-88
2023/07/31 02:56:54;;;;;;;11.77;3.72;;;16.40;99.90;;;;;;10584854;28;20223;-88
2023/07/31 03:01:57;;;;;;;5.97;3.20;;;16.50;99.90;;;;;;10549362;28;20616;-88
2023/07/31 03:07:00;;;;;;;4.82;2.78;;;16.50;99.90;;;;;;10565509;28;21074;-88
2023/07/31 03:12:03;;;;;;;2.55;2.30;;;16.50;99.90;;;;;;10565614;28;20201;-88
2023/07/31 03:17:06;;;;;;;6.10;3.10;;;16.50;99.90;;;;;;10584188;28;20193;-88
2023/07/31 03:22:08;;;;;;;3.10;2.80;;;16.50;99.90;;;;;;10583554;28;20262;-88
2023/07/31 03:27:11;;;;;;;2.83;2.47;;;16.40;99.90;;;;;;10583756;28;20270;-88
2023/07/31 03:32:13;;;;;;;5.72;3.25;;;16.40;99.90;;;;;;10564077;28;20626;-88
2023/07/31 03:37:16;;;;;;;3.80;3.42;;;16.30;99.90;;;;;;10564130;28;20213;-88
2023/07/31 03:42:18;;;;;;;5.70;3.65;;;16.00;99.90;;;;;;10583237;28;20555;-88
2023/07/31 03:47:21;;;;;;;4.95;2.90;;;15.70;99.90;;;;;;10582607;28;20241;-88
2023/07/31 03:52:23;;;;;;;5.82;3.55;;;15.60;99.90;;;;;;10583236;28;20189;-88
2023/07/31 03:57:27;;;;;;;5.47;3.05;;;15.60;99.90;;;;;;10563762;28;20205;-88
2023/07/31 04:02:30;;;;;;;3.00;2.70;;;15.70;99.90;;;;;;10582827;28;20227;-88
2023/07/31 04:07:32;;;;;;;4.65;3.42;;;15.80;99.90;;;;;;10580514;28;20229;-88
2023/07/31 04:12:35;;;;;;;3.33;3.03;;;15.80;99.90;;;;;;10582709;28;20185;-88
2023/07/31 04:17:37;;;;;;;5.05;3.33;;;16.00;99.90;;;;;;10563123;28;20209;-88
2023/07/31 04:22:40;;;;;;;3.88;2.63;;;16.20;99.90;;;;;;10581326;28;20201;-88
2023/07/31 04:27:42;;;;;;;5.63;3.35;;;16.40;99.90;;;;;;10580885;28;20281;-88
2023/07/31 04:32:45;;;;;;;4.93;2.92;;;16.50;99.90;;;;;;10580763;28;20204;-88
2023/07/31 04:37:48;;;;;;;8.10;3.38;;;16.70;99.90;;;;;;10580460;28;20201;-88
2023/07/31 04:42:51;;;;;;;3.65;2.97;;;16.80;99.90;;;;;;10581152;28;20201;-88
2023/07/31 04:47:53;;;;;;;5.00;2.65;;;16.90;99.90;;;;;;10580978;28;20580;-88
2023/07/31 04:52:57;;;;;;;4.95;3.20;;;16.90;99.90;;;;;;10580330;28;20189;-88
2023/07/31 04:57:59;;;;;;;8.68;5.65;;;17.00;99.90;;;;;;10561990;28;20209;-88
2023/07/31 05:03:02;;;;;;;7.70;4.78;;;17.00;99.90;;;;;;10561522;28;20639;-88
2023/07/31 05:08:05;;;;;;;8.07;3.30;;;16.90;99.90;;;;;;10561693;28;20719;-88
2023/07/31 05:13:08;;;;;;;5.32;3.40;;;16.90;99.90;;;;;;10579548;28;20575;-88
2023/07/31 05:18:10;;;;;;;7.72;4.35;;;16.80;99.90;;;;;;10579594;28;20259;-88
2023/07/31 05:23:13;;;;;;;4.75;3.40;;;16.80;99.90;;;;;;10588933;28;20793;-88
2023/07/31 05:28:15;;;;;;;4.45;4.05;;;16.70;99.90;;;;;;10590438;28;20220;-88
2023/07/31 05:33:18;;;;;;;6.00;4.10;;;16.80;99.90;;;;;;10554567;28;20578;-88
2023/07/31 05:38:21;;;;;;;5.78;4.63;;;17.00;99.90;;;;;;10587487;28;20192;-87
2023/07/31 05:43:23;;;;;;;2.70;2.50;;;17.10;99.90;;;;;;10587362;28;20309;-88
2023/07/31 05:48:26;;;;;;;2.63;2.25;;;17.30;99.90;;;;;;10587674;28;20209;-88
2023/07/31 05:53:28;;;;;;;5.07;3.72;;;17.40;99.90;;;;;;10568980;28;20227;-88
2023/07/31 05:58:31;;;;;;;4.28;3.17;;;17.70;99.90;;;;;;10569279;28;20568;-88
2023/07/31 06:03:33;;;;;;;3.25;2.83;;;17.80;99.90;;;;;;10586370;28;20816;-87
2023/07/31 06:08:36;;;;;;;5.43;4.53;;;18.10;99.90;;;;;;10551744;28;20278;-88
2023/07/31 06:13:39;;;;;;;3.70;3.13;;;18.20;99.90;;;;;;10586751;28;20250;-87
2023/07/31 06:18:45;;;;;;;4.55;3.65;;;18.40;99.90;;;;;;10586766;28;20556;-88
2023/07/31 06:23:47;;;;;;;6.15;3.95;;;18.60;99.90;;;;;;10567672;28;20278;-88
2023/07/31 06:28:50;;;;;;;6.53;3.67;;;18.80;99.90;;;;;;10568088;28;20242;-87
2023/07/31 06:33:52;;;;;;;5.40;2.65;;;18.90;99.90;;;;;;10584989;28;20189;-88
2023/07/31 06:38:55;;;;;;;2.63;2.30;;;19.00;99.90;;;;;;10585363;28;20254;-88
2023/07/31 06:43:58;;;;;;;7.50;3.08;;;19.10;99.90;;;;;;10549387;28;20663;-88
2023/07/31 06:49:00;;;;;;;4.82;4.32;;;19.30;99.90;;;;;;10584789;28;20221;-88
2023/07/31 06:54:03;;;;;;;5.90;3.47;;;19.50;99.80;;;;;;10566385;28;20205;-88
2023/07/31 06:59:05;;;;;;;7.75;3.35;;;19.70;99.70;;;;;;10584594;28;20611;-87
2023/07/31 07:04:08;;;;;;;6.20;3.50;;;19.80;99.10;;;;;;10565951;28;20254;-87
2023/07/31 07:09:10;;;;;;;4.43;2.72;;;19.90;98.70;;;;;;10583612;28;20228;-88
2023/07/31 07:14:13;;;;;;;10.07;3.63;;;19.90;96.60;;;;;;10565761;28;20570;-88
2023/07/31 07:19:15;;;;;;;3.63;2.70;;;19.90;97.20;;;;;;10548960;28;20205;-88
2023/07/31 07:24:18;;;;;;;5.18;2.92;;;20.00;97.30;;;;;;10583690;28;20197;-88
2023/07/31 07:29:20;;;;;;;3.22;2.75;;;20.20;97.00;;;;;;10583436;28;20217;-88
2023/07/31 07:34:28;;;;;;;4.55;2.92;;;20.30;97.50;;;;;;10583119;28;20189;-88
2023/07/31 07:39:30;;;;;;;2.55;2.30;;;20.40;93.50;;;;;;10582080;28;20217;-87
2023/07/31 07:44:33;;;;;;;3.03;2.53;;;20.50;91.80;;;;;;10581196;28;20204;-87
2023/07/31 07:49:35;;;;;;;4.60;2.38;;;20.70;92.50;;;;;;10564739;28;20699;-88
2023/07/31 07:54:38;;;;;;;5.47;2.30;;;20.80;92.80;;;;;;10564214;28;20258;-88
2023/07/31 07:59:41;;;;;;;4.88;2.10;;;20.90;92.10;;;;;;10581199;28;20274;-87
2023/07/31 08:04:44;;;;;;;2.70;2.20;;;20.80;92.10;;;;;;10581683;28;20266;-88
2023/07/31 08:09:47;;;;;;;3.22;2.42;;;20.70;89.40;;;;;;10581339;28;20258;-88
2023/07/31 08:14:49;;;;;;;2.78;2.15;;;20.70;87.60;;;;;;10581649;28;20262;-88
2023/07/31 08:19:54;;;;;;;1.73;1.63;;;20.60;89.30;;;;;;10580638;28;20591;-88
2023/07/31 08:24:57;;;;;;;3.42;2.28;;;20.70;86.20;;;;;;10581111;28;20606;-88
2023/07/31 08:30:00;;;;;;;4.38;2.35;;;20.80;85.30;;;;;;10581000;28;20580;-87
2023/07/31 08:35:02;;;;;;;2.85;2.25;;;20.80;86.80;;;;;;10562389;28;20281;-88
2023/07/31 08:40:06;;;;;;;4.82;2.22;;;20.90;83.50;;;;;;10580923;28;20226;-88
2023/07/31 08:45:10;;;;;;;2.17;1.80;;;20.80;89.20;;;;;;10580321;28;20266;-88
2023/07/31 08:50:14;;;;;;;5.03;2.20;;;20.90;83.50;;;;;;10579630;28;20278;-88
2023/07/31 08:55:17;;;;;;;3.97;2.35;;;21.00;84.40;;;;;;10561789;28;20185;-87
2023/07/31 09:00:21;;;;;;;3.17;2.13;;;21.00;85.20;;;;;;10579980;28;20196;-88
2023/07/31 09:05:25;;;;;;;3.30;2.00;;;21.00;83.20;;;;;;10545244;28;20200;-88
2023/07/31 09:10:28;;;;;;;2.40;2.20;;;21.10;88.60;;;;;;10579215;28;20599;-88
2023/07/31 09:15:31;;;;;;;2.60;2.38;;;21.10;85.60;;;;;;10560999;28;20208;-88
2023/07/31 09:20:39;;;;;;;3.05;2.70;;;21.20;84.80;;;;;;10579168;28;20619;-88
2023/07/31 09:25:46;;;;;;;3.80;2.47;;;21.30;81.00;;;;;;10579210;28;20576;-88
2023/07/31 09:30:51;;;;;;;4.82;2.03;;;21.40;79.30;;;;;;10560700;28;20255;-88
2023/07/31 09:35:53;;;;;;;6.20;3.22;;;21.40;84.50;;;;;;10560851;28;20255;-88
2023/07/31 09:40:59;;;;;;;2.35;2.08;;;21.20;84.10;;;;;;10562945;28;20205;-88
2023/07/31 09:46:01;;;;;;;4.53;2.65;;;20.90;88.20;;;;;;10579132;28;20193;-87
2023/07/31 09:51:05;;;;;;;2.83;2.22;;;20.70;86.50;;;;;;10578059;28;20229;-87
2023/07/31 09:56:07;;;;;;;3.55;2.40;;;20.50;90.00;;;;;;10578840;28;20238;-88
2023/07/31 10:01:10;;;;;;;3.85;2.25;;;20.40;91.60;;;;;;10552672;28;20201;-87
2023/07/31 10:06:15;;;;;;;6.88;2.47;;;20.00;93.50;;;;;;10561961;28;20301;-87
2023/07/31 10:11:18;;;;;;;5.95;2.75;;;19.90;95.40;;;;;;10585663;28;20221;-87
2023/07/31 10:16:22;;;;;;;2.40;2.10;;;19.70;96.00;;;;;;10567315;28;20205;-88
2023/07/31 10:21:24;;;;;;;2.30;2.05;;;19.80;93.70;;;;;;10585134;28;20620;-88
2023/07/31 10:26:27;;;;;;;5.07;2.53;;;19.70;94.80;;;;;;10585307;28;20208;-88
2023/07/31 10:31:30;;;;;;;4.57;2.50;;;19.70;97.30;;;;;;10585081;28;20246;-88
2023/07/31 10:36:33;;;;;;;5.82;2.55;;;19.80;98.00;;;;;;10566596;28;20585;-88
2023/07/31 10:41:36;;;;;;;2.85;2.63;;;19.90;99.90;;;;;;10584965;28;20223;-88
2023/07/31 10:46:38;;;;;;;3.30;2.80;;;19.80;98.30;;;;;;10584270;28;20209;-88
2023/07/31 10:51:42;;;;;;;3.78;2.58;;;19.70;97.70;;;;;;10584591;28;20213;-88
2023/07/31 10:56:46;;;;;;;3.60;2.80;;;19.60;98.60;;;;;;10566068;28;20563;-88
2023/07/31 11:02:02;;;;;;;4.68;2.60;;;19.40;99.60;;;;;;10583115;28;20272;-88
2023/07/31 11:07:08;;;;;;;2.92;2.47;;;19.40;99.90;;;;;;10583052;28;20232;-88
2023/07/31 11:12:11;;;;;;;2.75;2.47;;;19.30;99.90;;;;;;10565799;28;20185;-88
2023/07/31 11:17:14;;;;;;;2.90;2.60;;;19.60;99.90;;;;;;10564832;28;20205;-88
2023/07/31 11:22:18;;;;;;;2.88;2.45;;;20.10;99.60;;;;;;10565302;28;20197;-88
2023/07/31 11:27:20;;;;;;;3.80;2.63;;;20.40;99.60;;;;;;10583217;28;20213;-88
2023/07/31 11:32:23;;;;;;;2.50;2.30;;;20.20;99.10;;;;;;10582590;28;20262;-88
2023/07/31 11:37:39;;;;;;;2.58;1.70;;;20.20;99.20;;;;;;10583027;28;20577;-88
2023/07/31 11:42:41;;;;;;;2.15;1.65;;;20.30;98.80;;;;;;10564294;28;20234;-88
2023/07/31 11:47:45;;;;;;;4.10;1.63;;;20.30;99.90;;;;;;10581941;28;20208;-88
2023/07/31 11:52:50;;;;;;;2.70;2.00;;;20.40;99.90;;;;;;10563756;28;20742;-88
2023/07/31 11:57:57;;;;;;;2.40;2.20;;;20.70;96.60;;;;;;10563523;28;20205;-88
2023/07/31 12:03:00;;;;;;;2.35;1.95;;;21.00;94.30;;;;;;10563981;28;20613;-88
2023/07/31 12:08:10;;;;;;;2.22;2.03;;;21.00;96.50;;;;;;10580461;28;20236;-88
2023/07/31 12:13:24;;;;;;;3.35;2.33;;;20.70;96.90;;;;;;10581204;28;20246;-88
2023/07/31 12:18:30;;;;;;;4.35;2.50;;;20.40;95.90;;;;;;10562027;28;20266;-88
2023/07/31 12:23:34;;;;;;;3.10;2.60;;;20.30;95.60;;;;;;10579940;28;20281;-88
2023/07/31 12:28:47;;;;;;;4.47;2.67;;;20.30;95.90;;;;;;10579802;28;20254;-88
2023/07/31 12:33:51;;;;;;;2.60;2.40;;;20.20;94.00;;;;;;10580069;28;20273;-88
2023/07/31 12:38:56;;;;;;;2.75;2.50;;;20.20;92.70;;;;;;10561681;28;20204;-88
2023/07/31 12:43:59;;;;;;;2.63;2.38;;;20.30;92.60;;;;;;10580141;28;20208;-87
2023/07/31 12:49:03;;;;;;;3.45;3.10;;;20.50;94.20;;;;;;10580324;28;20657;-88
2023/07/31 12:54:05;;;;;;;7.38;3.25;;;20.90;92.90;;;;;;10579368;28;20254;-88
2023/07/31 12:59:08;;;;;;;2.47;2.28;;;20.90;94.60;;;;;;10544440;28;20258;-88
2023/07/31 13:04:11;;;;;;;2.88;2.67;;;20.80;91.10;;;;;;10561466;28;20265;-88
2023/07/31 13:09:13;;;;;;;4.10;2.47;;;20.80;92.50;;;;;;10561209;28;20643;-88
2023/07/31 13:14:16;;;;;;;6.88;2.53;;;21.10;93.40;;;;;;10560859;28;20247;-88
2023/07/31 13:19:19;;;;;;;5.15;2.60;;;21.10;91.20;;;;;;10579630;28;20254;-88
2023/07/31 13:24:22;;;;;;;4.13;3.03;;;21.30;90.00;;;;;;10578725;28;20205;-88
2023/07/31 13:29:24;;;;;;;3.05;2.80;;;21.50;91.50;;;;;;10579510;28;20269;-88
2023/07/31 13:34:27;;;;;;;2.47;2.28;;;21.50;84.70;;;;;;10579380;28;20189;-88
2023/07/31 13:39:29;;;;;;;5.03;3.75;;;21.30;85.10;;;;;;10580032;28;20601;-88
2023/07/31 13:44:33;;;;;;;8.70;2.97;;;21.10;93.10;;;;;;10586856;28;20212;-88
2023/07/31 13:49:36;;;;;;;5.05;3.75;;;20.80;92.60;;;;;;10570697;28;20266;-88
2023/07/31 13:54:39;;;;;;;3.60;3.13;;;20.70;93.80;;;;;;10587433;28;20261;-88
2023/07/31 13:59:42;;;;;;;4.20;2.58;;;20.60;94.00;;;;;;10586760;28;20265;-88
2023/07/31 14:04:44;;;;;;;2.78;2.58;;;20.40;97.40;;;;;;10586660;28;20189;-88
2023/07/31 14:09:47;;;;;;;4.97;3.33;;;20.10;98.80;;;;;;10567894;28;20689;-88
2023/07/31 14:14:49;;;;;;;4.13;2.90;;;20.00;98.80;;;;;;10567695;28;20257;-88
2023/07/31 14:19:52;;;;;;;3.08;2.78;;;20.00;98.50;;;;;;10586352;28;20228;-88
2023/07/31 14:24:54;;;;;;;5.78;3.33;;;20.20;97.90;;;;;;10586104;28;20184;-88
2023/07/31 14:29:57;;;;;;;4.43;3.40;;;20.70;96.30;;;;;;10585793;28;20216;-88
2023/07/31 14:35:00;;;;;;;3.38;3.08;;;21.10;95.80;;;;;;10585187;28;20193;-88
2023/07/31 14:40:02;;;;;;;2.35;2.15;;;21.50;90.80;;;;;;10567561;28;20196;-88
2023/07/31 14:45:06;;;;;;;5.10;2.22;;;21.80;91.30;;;;;;10585302;28;20276;-88
2023/07/31 14:50:09;;;;;;;3.53;2.78;;;22.00;90.20;;;;;;10585134;28;20217;-88
2023/07/31 14:55:12;;;;;;;3.85;2.70;;;21.90;90.10;;;;;;10583909;28;20215;-88
2023/07/31 15:00:14;;;;;;;7.90;3.50;;;22.00;90.00;;;;;;10584365;28;20610;-88
2023/07/31 15:05:17;;;;;;;3.03;2.47;;;22.20;82.20;;;;;;10565878;28;20618;-88
2023/07/31 15:10:20;;;;;;;4.93;2.40;;;22.40;88.90;;;;;;10583354;28;20772;-88
2023/07/31 15:15:23;;;;;;;2.67;2.42;;;22.40;88.30;;;;;;10565165;28;20254;-88
2023/07/31 15:20:26;;;;;;;3.20;2.45;;;22.40;78.80;;;;;;10564948;28;20764;-88
2023/07/31 15:25:28;;;;;;;2.95;2.67;;;22.40;82.10;;;;;;10583100;28;20197;-88
2023/07/31 15:30:31;;;;;;;3.45;2.50;;;22.30;85.60;;;;;;10583177;28;20293;-88
2023/07/31 15:35:34;;;;;;;2.90;2.63;;;22.20;81.90;;;;;;10582273;28;20674;-88
2023/07/31 15:40:38;;;;;;;7.90;3.92;;;22.00;87.60;;;;;;10564998;28;20197;-88
2023/07/31 15:45:40;;;;;;;3.70;2.70;;;21.90;90.70;;;;;;10547300;28;20213;-88
2023/07/31 15:50:43;;;;;;;3.60;2.67;;;21.90;91.20;;;;;;10582661;28;20247;-88
2023/07/31 15:55:46;;;;;;;3.03;2.72;;;21.80;84.20;;;;;;10582328;28;20597;-88
2023/07/31 16:00:49;;;;;;;2.78;2.28;;;21.90;82.00;;;;;;10582130;28;20257;-88
2023/07/31 16:05:51;;;;;;;3.03;2.50;;;22.00;84.70;;;;;;10580837;28;20215;-87
2023/07/31 16:10:55;;;;;;;2.53;2.33;;;22.10;79.20;;;;;;10581953;28;20776;-88
2023/07/31 16:15:58;;;;;;;2.38;2.17;;;22.10;77.90;;;;;;10580487;28;20582;-88
2023/07/31 16:21:01;;;;;;;2.97;2.58;;;22.10;73.80;;;;;;10580254;28;20898;-88
2023/07/31 16:26:03;;;;;;;2.50;2.10;;;22.10;72.60;;;;;;10581064;28;20201;-88
2023/07/31 16:31:06;;;;;;;2.75;2.10;;;22.10;72.50;;;;;;10579971;28;20594;-88
2023/07/31 16:36:08;;;;;;;2.78;1.90;;;22.10;76.70;;;;;;10561923;28;20192;-88
2023/07/31 16:41:11;;;;;;;2.28;1.65;;;21.90;73.90;;;;;;10572005;28;20193;-88
2023/07/31 16:46:13;;;;;;;1.88;1.77;;;21.70;76.80;;;;;;10579987;28;20261;-88
2023/07/31 16:51:16;;;;;;;3.20;2.38;;;21.70;74.20;;;;;;10580032;28;20208;-88
2023/07/31 16:56:19;;;;;;;3.17;2.42;;;21.50;75.00;;;;;;10561356;28;20254;-88
2023/07/31 17:01:22;;;;;;;3.35;2.60;;;21.40;81.70;;;;;;10561865;28;20204;-88
2023/07/31 17:06:28;;;;;;;3.72;2.25;;;21.30;78.80;;;;;;10579429;28;20230;-88
2023/07/31 17:11:30;;;;;;;2.15;1.95;;;21.20;78.70;;;;;;10560906;28;20637;-88
2023/07/31 17:16:35;;;;;;;2.10;2.00;;;21.20;84.30;;;;;;10551783;28;20846;-88
2023/07/31 17:21:38;;;;;;;3.42;2.67;;;21.20;83.00;;;;;;10593022;28;20205;-88
2023/07/31 17:26:41;;;;;;;3.72;2.42;;;21.20;84.50;;;;;;10574929;27;20744;-88
2023/07/31 17:31:43;;;;;;;2.92;1.90;;;21.10;87.00;;;;;;10593348;28;20216;-88
2023/07/31 17:36:46;;;;;;;2.65;2.33;;;21.10;85.70;;;;;;10593639;28;20192;-88
2023/07/31 17:41:49;;;;;;;2.80;2.60;;;21.00;87.00;;;;;;10592759;28;20205;-88
2023/07/31 17:46:51;;;;;;;3.03;2.40;;;20.90;86.00;;;;;;10593201;28;20603;-88
2023/07/31 17:51:54;;;;;;;6.43;2.92;;;20.80;87.10;;;;;;10593340;27;20216;-88
2023/07/31 17:56:56;;;;;;;6.40;2.67;;;20.80;89.10;;;;;;10594455;27;20250;-88
2023/07/31 18:01:59;;;;;;;3.38;2.40;;;20.70;91.00;;;;;;10592605;28;20618;-88
2023/07/31 18:07:01;;;;;;;6.28;3.33;;;20.60;91.70;;;;;;10592566;27;20277;-88
2023/07/31 18:12:06;;;;;;;4.10;2.55;;;20.50;92.70;;;;;;10592287;27;20220;-88
2023/07/31 18:17:09;;;;;;;3.42;2.25;;;20.30;93.00;;;;;;10591140;27;20205;-88
2023/07/31 18:22:11;;;;;;;4.18;2.53;;;20.20;92.80;;;;;;10592413;27;20250;-88
2023/07/31 18:27:14;;;;;;;4.75;3.17;;;20.10;93.20;;;;;;10588175;28;20545;-88
2023/07/31 18:32:16;;;;;;;4.13;2.60;;;20.10;92.90;;;;;;10567082;28;20642;-87
2023/07/31 18:37:19;;;;;;;3.17;2.17;;;19.90;93.70;;;;;;10584924;28;20200;-88
2023/07/31 18:42:22;;;;;;;4.65;2.45;;;19.80;93.80;;;;;;10549916;28;20274;-88
2023/07/31 18:47:24;;;;;;;4.25;2.88;;;19.60;94.80;;;;;;10584179;28;20629;-88
2023/07/31 18:52:27;;;;;;;3.58;2.35;;;19.50;95.40;;;;;;10584375;28;20585;-88
2023/07/31 18:57:29;;;;;;;5.88;3.15;;;19.30;95.90;;;;;;10584162;28;20250;-88
2023/07/31 19:02:32;;;;;;;4.78;3.75;;;19.20;96.10;;;;;;10584986;28;20321;-88
2023/07/31 19:07:34;;;;;;;4.55;2.55;;;19.10;96.70;;;;;;10584676;28;20274;-88
2023/07/31 19:12:37;;;;;;;5.90;2.90;;;19.00;97.00;;;;;;10583830;28;20224;-88
2023/07/31 19:17:40;;;;;;;4.63;2.88;;;18.90;97.50;;;;;;10565212;28;20209;-88
2023/07/31 19:22:43;;;;;;;7.05;4.35;;;18.90;98.40;;;;;;10583292;28;20227;-88
2023/07/31 19:27:45;;;;;;;5.13;3.60;;;18.80;98.60;;;;;;10583850;28;20254;-88
2023/07/31 19:32:53;;;;;;;5.38;2.80;;;18.80;99.00;;;;;;10582317;28;20630;-88
2023/07/31 19:37:55;;;;;;;4.40;2.88;;;18.70;99.30;;;;;;10565262;28;20188;-88
2023/07/31 19:42:59;;;;;;;7.85;3.28;;;18.80;99.90;;;;;;10583394;28;20207;-88
2023/07/31 19:48:02;;;;;;;3.67;2.92;;;18.80;99.90;;;;;;10564545;28;20204;-88
2023/07/31 19:53:05;;;;;;;4.88;3.45;;;18.80;99.40;;;;;;10582552;28;20220;-88
2023/07/31 19:58:07;;;;;;;4.38;3.22;;;18.90;98.80;;;;;;10564662;28;20189;-88
2023/07/31 20:03:09;;;;;;;4.15;3.25;;;18.90;98.70;;;;;;10581904;28;20197;-88
2023/07/31 20:08:12;;;;;;;2.78;2.50;;;19.00;98.40;;;;;;10563808;28;20274;-88
2023/07/31 20:13:14;;;;;;;4.00;2.58;;;19.00;98.50;;;;;;10581141;28;20216;-88
2023/07/31 20:18:17;;;;;;;6.25;3.13;;;19.00;98.60;;;;;;10562887;28;20616;-88
2023/07/31 20:23:22;;;;;;;4.80;2.95;;;19.00;99.00;;;;;;10562423;28;20205;-88
2023/07/31 20:28:44;;;;;;;3.97;2.92;;;19.00;99.10;;;;;;10566311;28;20593;-88
2023/07/31 20:33:47;;;;;;;3.75;3.00;;;19.00;99.40;;;;;;10581017;28;20266;-88
2023/07/31 20:38:49;;;;;;;3.65;3.10;;;18.90;99.90;;;;;;10580690;28;20193;-88
2023/07/31 20:43:52;;;;;;;10.80;4.50;;;18.90;99.80;;;;;;10562026;28;20745;-88
2023/07/31 20:48:54;;;;;;;3.55;3.25;;;18.90;99.90;;;;;;10579973;28;20258;-88
2023/07/31 20:53:57;;;;;;;4.80;3.15;;;18.90;99.70;;;;;;10579789;28;20634;-88
2023/07/31 20:58:59;;;;;;;4.68;3.42;;;18.90;99.90;;;;;;10580347;28;20211;-88
2023/07/31 21:04:04;;;;;;;6.95;4.57;;;19.00;99.90;;;;;;10579373;28;20281;-88
2023/07/31 21:09:07;;;;;;;4.95;3.38;;;19.00;99.70;;;;;;10579666;28;20232;-88
2023/07/31 21:14:10;;;;;;;5.20;2.92;;;19.00;99.90;;;;;;10579426;28;20212;-88
2023/07/31 21:19:13;;;;;;;4.43;3.70;;;19.00;99.50;;;;;;10578722;28;20200;-88
2023/07/31 21:24:16;;;;;;;6.85;3.20;;;19.00;99.90;;;;;;10578269;28;20209;-88
2023/07/31 21:29:19;;;;;;;2.63;2.08;;;19.00;99.90;;;;;;10579313;28;20762;-88
2023/07/31 21:34:21;;;;;;;4.45;3.20;;;19.00;99.70;;;;;;10578861;28;20220;-88
2023/07/31 21:39:24;;;;;;;3.70;3.13;;;19.00;99.70;;;;;;10561193;28;20197;-88
2023/07/31 21:44:26;;;;;;;4.50;2.42;;;19.10;99.40;;;;;;10578276;28;20254;-88
2023/07/31 21:49:29;;;;;;;6.13;2.60;;;19.10;99.10;;;;;;10559254;28;20223;-88
2023/07/31 21:54:31;;;;;;;2.45;1.90;;;19.10;98.60;;;;;;10578184;28;20209;-88
2023/07/31 21:59:35;;;;;;;3.60;2.63;;;19.20;97.70;;;;;;10578912;28;20193;-88
2023/07/31 22:04:41;;;;;;;3.30;2.67;;;19.30;97.10;;;;;;10566960;28;20557;-88
2023/07/31 22:09:44;;;;;;;4.03;2.15;;;19.40;96.70;;;;;;10586429;28;20246;-88
2023/07/31 22:14:46;;;;;;;4.10;2.88;;;19.40;94.90;;;;;;10585329;28;20204;-88
2023/07/31 22:19:49;;;;;;;4.40;2.30;;;19.50;95.30;;;;;;10585247;28;20201;-88
2023/07/31 22:24:51;;;;;;;3.30;2.22;;;19.40;96.00;;;;;;10585777;28;20192;-88
2023/07/31 22:29:54;;;;;;;3.17;2.88;;;19.40;96.20;;;;;;10585680;28;20193;-88
2023/07/31 22:34:56;;;;;;;3.38;2.50;;;19.30;96.10;;;;;;10567543;28;20246;-88
2023/07/31 22:39:59;;;;;;;4.15;2.15;;;19.40;95.80;;;;;;10566982;28;20559;-88
2023/07/31 22:45:01;;;;;;;2.90;2.60;;;19.30;96.30;;;;;;10585563;28;20201;-88
2023/07/31 22:50:05;;;;;;;6.50;2.88;;;19.30;97.70;;;;;;10567135;28;20213;-88
2023/07/31 22:55:08;;;;;;;3.00;2.58;;;19.20;98.60;;;;;;10585339;28;20600;-88
2023/07/31 23:00:11;;;;;;;3.60;2.60;;;19.10;98.60;;;;;;10585191;28;20257;-88
2023/07/31 23:05:14;;;;;;;7.07;3.35;;;19.10;98.60;;;;;;10584583;28;20605;-87
2023/07/31 23:10:17;;;;;;;4.05;2.78;;;19.10;99.00;;;;;;10583531;28;20251;-88
2023/07/31 23:15:20;;;;;;;2.92;2.50;;;19.00;99.50;;;;;;10583590;28;20565;-87
2023/07/31 23:20:22;;;;;;;5.18;2.80;;;19.00;99.50;;;;;;10583498;28;20280;-88
2023/07/31 23:25:25;;;;;;;4.05;2.80;;;19.00;99.90;;;;;;10582683;28;20208;-88
2023/07/31 23:30:27;;;;;;;3.25;2.50;;;19.00;99.70;;;;;;10564815;28;20246;-88
2023/07/31 23:35:30;;;;;;;4.47;2.90;;;19.00;99.50;;;;;;10582688;28;20251;-87
2023/07/31 23:40:33;;;;;;;4.32;2.95;;;19.00;99.60;;;;;;10583201;28;20247;-88
2023/07/31 23:45:36;;;;;;;3.92;2.60;;;18.90;99.90;;;;;;10582621;28;20205;-88
2023/07/31 23:50:38;;;;;;;8.63;2.88;;;18.90;99.70;;;;;;10564194;28;20221;-88
2023/07/31 23:55:41;;;;;;;5.88;2.60;;;18.90;99.90;;;;;;10563692;28;20671;-88
